createdAt,value
2022-09-15T00:01:08.187Z,0.90
2022-09-15T00:03:36.930Z,0.70
2022-09-15T00:06:04.462Z,0.60
2022-09-15T00:08:32.170Z,0.80
2022-09-15T00:11:10.048Z,0.60
2022-09-15T00:13:38.788Z,0.60
2022-09-15T00:16:06.327Z,0.50
2022-09-15T00:18:35.122Z,0.60
2022-09-15T00:21:09.681Z,0.60
2022-09-15T00:23:37.443Z,0.52
2022-09-15T00:26:10.058Z,0.50
2022-09-15T00:28:37.811Z,0.50
2022-09-15T00:31:12.108Z,0.63
2022-09-15T00:33:39.492Z,0.90
2022-09-15T00:36:11.836Z,0.60
2022-09-15T00:38:39.327Z,0.40
2022-09-15T00:41:08.648Z,0.60
2022-09-15T00:44:04.325Z,0.50
2022-09-15T00:46:41.029Z,0.60
2022-09-15T00:49:36.038Z,0.70
2022-09-15T00:52:07.463Z,0.60
2022-09-15T00:54:37.783Z,0.65
2022-09-15T00:57:14.376Z,0.50
2022-09-15T00:59:42.750Z,0.40
2022-09-15T01:02:33.078Z,0.63
2022-09-15T01:05:03.058Z,0.65
2022-09-15T01:08:06.070Z,0.80
2022-09-15T01:10:36.722Z,0.50
2022-09-15T01:13:10.817Z,0.40
2022-09-15T01:16:10.640Z,0.80
2022-09-15T01:18:37.774Z,0.73
2022-09-15T01:21:14.683Z,0.60
2022-09-15T01:24:06.639Z,0.60
2022-09-15T01:26:39.419Z,0.60
2022-09-15T01:29:30.521Z,0.57
2022-09-15T01:32:33.231Z,0.50
2022-09-15T01:35:28.117Z,0.85
2022-09-15T01:38:04.299Z,0.50
2022-09-15T01:40:37.620Z,0.70
2022-09-15T01:43:09.149Z,0.60
2022-09-15T01:45:39.355Z,0.57
2022-09-15T01:48:08.958Z,0.52
2022-09-15T01:50:43.077Z,0.65
2022-09-15T01:53:16.690Z,0.60
2022-09-15T01:56:09.848Z,0.77
2022-09-15T01:58:38.789Z,0.40
2022-09-15T02:01:14.098Z,0.43
2022-09-15T02:03:44.696Z,0.50
2022-09-15T02:06:38.953Z,0.53
2022-09-15T02:09:12.903Z,0.52
2022-09-15T02:11:52.236Z,0.52
2022-09-15T02:14:39.345Z,0.63
2022-09-15T02:17:10.727Z,0.60
2022-09-15T02:19:44.055Z,0.80
2022-09-15T02:22:28.384Z,0.50
2022-09-15T02:25:12.599Z,0.47
2022-09-15T02:27:52.716Z,0.50
2022-09-15T02:30:21.410Z,0.60
2022-09-15T02:33:11.883Z,0.60
2022-09-15T02:35:40.272Z,0.50
2022-09-15T02:38:10.029Z,0.50
2022-09-15T02:40:41.371Z,0.70
2022-09-15T02:43:12.462Z,0.40
2022-09-15T02:45:39.782Z,0.60
2022-09-15T02:48:09.774Z,0.68
2022-09-15T02:50:37.751Z,0.50
2022-09-15T02:53:04.957Z,0.60
2022-09-15T02:55:33.640Z,0.50
2022-09-15T02:58:00.806Z,0.50
2022-09-15T03:00:28.629Z,1.35
2022-09-15T03:02:56.272Z,0.40
2022-09-15T03:05:26.017Z,0.75
2022-09-15T03:07:55.743Z,0.50
2022-09-15T03:10:24.766Z,0.60
2022-09-15T03:12:53.702Z,0.60
2022-09-15T03:15:24.614Z,0.73
2022-09-15T03:17:52.797Z,0.52
2022-09-15T03:20:23.451Z,0.80
2022-09-15T03:22:52.872Z,0.70
2022-09-15T03:25:20.905Z,0.60
2022-09-15T03:27:48.093Z,0.70
2022-09-15T03:30:15.655Z,0.52
2022-09-15T03:32:42.727Z,0.60
2022-09-15T03:35:10.168Z,0.70
2022-09-15T03:37:37.431Z,0.50
2022-09-15T03:40:05.332Z,0.80
2022-09-15T03:42:32.756Z,0.55
2022-09-15T03:44:59.911Z,0.90
2022-09-15T03:47:27.012Z,0.80
2022-09-15T03:49:55.093Z,1.00
2022-09-15T03:52:22.259Z,0.60
2022-09-15T03:54:49.398Z,0.60
2022-09-15T03:57:16.466Z,0.70
2022-09-15T03:59:43.838Z,1.00
2022-09-15T04:02:11.215Z,0.90
2022-09-15T04:04:38.459Z,0.70
2022-09-15T04:07:05.691Z,0.85
2022-09-15T04:09:33.271Z,0.90
2022-09-15T04:12:00.689Z,1.00
2022-09-15T04:14:27.949Z,0.90
2022-09-15T04:16:54.993Z,0.80
2022-09-15T04:19:22.131Z,0.77
2022-09-15T04:21:49.247Z,0.85
2022-09-15T04:24:16.352Z,1.00
2022-09-15T04:26:43.954Z,0.77
2022-09-15T04:29:16.594Z,1.10
2022-09-15T04:31:43.839Z,1.00
2022-09-15T04:34:11.291Z,1.73
2022-09-15T04:36:38.614Z,1.00
2022-09-15T04:39:06.666Z,0.80
2022-09-15T04:41:35.091Z,1.13
2022-09-15T04:44:02.442Z,0.98
2022-09-15T04:46:29.617Z,1.05
2022-09-15T04:48:56.994Z,1.17
2022-09-15T04:51:24.995Z,0.95
2022-09-15T04:53:52.330Z,1.00
2022-09-15T04:56:21.840Z,1.10
2022-09-15T04:59:02.459Z,0.95
2022-09-15T05:01:32.833Z,1.17
2022-09-15T05:04:03.924Z,0.80
2022-09-15T05:06:32.227Z,1.20
2022-09-15T05:08:59.649Z,1.40
2022-09-15T05:11:28.393Z,1.20
2022-09-15T05:13:55.558Z,1.10
2022-09-15T05:16:25.144Z,1.40
2022-09-15T05:18:54.531Z,1.25
2022-09-15T05:21:23.133Z,1.33
2022-09-15T05:23:54.105Z,1.50
2022-09-15T05:26:24.292Z,1.37
2022-09-15T05:28:51.741Z,1.58
2022-09-15T05:31:25.225Z,1.98
2022-09-15T05:33:53.398Z,1.60
2022-09-15T05:36:24.967Z,1.85
2022-09-15T05:38:58.547Z,1.67
2022-09-15T05:41:27.758Z,1.55
2022-09-15T05:44:01.279Z,2.10
2022-09-15T05:46:29.587Z,1.83
2022-09-15T05:48:58.647Z,1.20
2022-09-15T05:51:25.957Z,1.67
2022-09-15T05:53:53.159Z,1.63
2022-09-15T05:56:20.634Z,1.67
2022-09-15T05:58:48.703Z,1.30
2022-09-15T06:01:21.635Z,1.65
2022-09-15T06:03:49.224Z,1.67
2022-09-15T06:06:16.871Z,1.60
2022-09-15T06:08:50.082Z,1.48
2022-09-15T06:11:23.008Z,1.33
2022-09-15T06:13:50.322Z,1.35
2022-09-15T06:16:19.998Z,1.50
2022-09-15T06:18:48.884Z,1.45
2022-09-15T06:21:23.830Z,1.10
2022-09-15T06:23:55.033Z,1.20
2022-09-15T06:26:23.699Z,1.08
2022-09-15T06:28:56.248Z,0.70
2022-09-15T06:31:25.250Z,1.00
2022-09-15T06:33:54.164Z,0.93
2022-09-15T06:36:26.115Z,0.90
2022-09-15T06:38:53.894Z,0.70
2022-09-15T06:41:52.937Z,1.10
2022-09-15T06:45:22.636Z,1.33
2022-09-15T06:48:24.436Z,0.70
2022-09-15T06:50:54.968Z,1.40
2022-09-15T06:53:22.205Z,1.00
2022-09-15T06:55:49.929Z,0.93
2022-09-15T06:58:17.297Z,0.90
2022-09-15T07:00:44.549Z,0.90
2022-09-15T07:03:11.825Z,0.55
2022-09-15T07:05:39.156Z,1.00
2022-09-15T07:08:12.183Z,0.93
2022-09-15T07:10:42.210Z,1.00
2022-09-15T07:13:09.292Z,1.10
2022-09-15T07:15:39.941Z,1.33
2022-09-15T07:18:07.342Z,0.77
2022-09-15T07:20:35.284Z,0.70
2022-09-15T07:23:02.398Z,0.65
2022-09-15T07:25:29.626Z,0.95
2022-09-15T07:27:56.702Z,0.60
2022-09-15T07:30:24.014Z,0.70
2022-09-15T07:32:52.794Z,0.70
2022-09-15T07:35:22.569Z,1.00
2022-09-15T07:37:49.849Z,1.25
2022-09-15T07:40:17.265Z,0.60
2022-09-15T07:42:45.066Z,0.82
2022-09-15T07:45:12.320Z,0.70
2022-09-15T07:47:39.508Z,0.90
2022-09-15T07:50:07.540Z,0.70
2022-09-15T07:52:34.713Z,1.20
2022-09-15T07:55:01.755Z,0.68
2022-09-15T07:57:32.198Z,1.10
2022-09-15T07:59:59.524Z,1.00
2022-09-15T08:02:29.152Z,1.20
2022-09-15T08:04:58.641Z,0.82
2022-09-15T08:07:26.429Z,1.08
2022-09-15T08:09:56.915Z,1.03
2022-09-15T08:12:30.910Z,0.60
2022-09-15T08:14:58.972Z,1.17
2022-09-15T08:22:17.569Z,1.05
2022-09-15T08:29:09.200Z,1.45
2022-09-15T08:31:38.875Z,0.90
2022-09-15T08:34:08.462Z,0.82
2022-09-15T08:36:37.432Z,0.80
2022-09-15T08:39:05.205Z,1.00
2022-09-15T08:41:48.335Z,0.80
2022-09-15T08:44:44.862Z,0.80
2022-09-15T08:47:35.828Z,0.90
2022-09-15T08:50:29.918Z,0.60
2022-09-15T08:53:12.850Z,0.80
2022-09-15T08:55:49.940Z,0.68
2022-09-15T08:58:35.843Z,1.20
2022-09-15T09:09:49.752Z,0.70
2022-09-15T09:12:41.160Z,1.25
2022-09-15T09:15:20.011Z,0.70
2022-09-15T09:18:14.580Z,0.75
2022-09-15T09:21:04.948Z,0.70
2022-09-15T09:23:43.764Z,0.70
2022-09-15T09:26:12.938Z,1.13
2022-09-15T09:28:55.587Z,1.38
2022-09-15T09:31:28.531Z,1.35
2022-09-15T09:35:00.069Z,1.60
2022-09-15T09:37:53.475Z,1.17
2022-09-15T09:40:21.105Z,0.80
2022-09-15T09:42:48.905Z,1.02
2022-09-15T09:45:18.748Z,1.00
2022-09-15T09:47:46.495Z,1.73
2022-09-15T09:50:45.378Z,2.57
2022-09-15T09:54:29.376Z,0.90
2022-09-15T09:57:31.003Z,1.05
2022-09-15T09:59:59.771Z,1.17
2022-09-15T10:02:28.023Z,0.95
2022-09-15T10:05:16.110Z,0.73
2022-09-15T10:07:43.945Z,1.20
2022-09-15T10:10:23.855Z,1.58
2022-09-15T10:12:56.491Z,0.80
2022-09-15T10:19:56.641Z,1.10
2022-09-15T10:22:37.069Z,1.10
2022-09-15T10:25:39.474Z,1.20
2022-09-15T10:29:03.783Z,1.08
2022-09-15T10:31:32.803Z,1.15
2022-09-15T10:34:28.241Z,1.00
2022-09-15T10:37:06.260Z,1.10
2022-09-15T10:44:20.781Z,1.20
2022-09-15T10:51:27.536Z,1.40
2022-09-15T10:54:03.611Z,1.60
2022-09-15T10:56:35.686Z,1.58
2022-09-15T10:59:17.613Z,1.70
2022-09-15T11:02:02.108Z,0.90
2022-09-15T11:04:42.227Z,1.23
2022-09-15T11:07:31.922Z,1.23
2022-09-15T11:10:27.723Z,0.93
2022-09-15T11:13:12.308Z,1.50
2022-09-15T11:15:55.154Z,2.08
2022-09-15T11:19:37.535Z,1.13
2022-09-15T11:22:38.547Z,1.15
2022-09-15T11:25:31.886Z,1.30
2022-09-15T11:28:20.152Z,0.90
2022-09-15T11:30:58.535Z,0.82
2022-09-15T11:33:32.750Z,1.30
2022-09-15T11:36:11.331Z,1.15
2022-09-15T11:43:05.448Z,1.30
2022-09-15T11:45:40.655Z,1.40
2022-09-15T11:49:13.934Z,1.00
2022-09-15T11:52:19.108Z,1.00
2022-09-15T11:54:53.616Z,1.67
2022-09-15T11:57:27.366Z,1.10
2022-09-15T12:00:03.062Z,1.25
2022-09-15T12:02:41.605Z,1.17
2022-09-15T12:05:34.642Z,1.10
2022-09-15T12:08:13.623Z,1.58
2022-09-15T12:10:52.784Z,1.10
2022-09-15T12:13:25.006Z,0.82
2022-09-15T12:15:54.576Z,1.00
2022-09-15T12:18:54.289Z,0.80
2022-09-15T12:21:37.465Z,1.00
2022-09-15T12:24:30.036Z,1.25
2022-09-15T12:27:00.962Z,1.60
2022-09-15T12:29:27.996Z,1.17
2022-09-15T12:32:18.650Z,1.27
2022-09-15T12:35:02.324Z,1.20
2022-09-15T12:37:45.171Z,1.38
2022-09-15T12:40:26.469Z,1.13
2022-09-15T12:42:54.547Z,1.47
2022-09-15T12:45:36.303Z,1.10
2022-09-15T12:48:26.497Z,1.13
2022-09-15T12:50:57.415Z,1.00
2022-09-15T12:53:31.840Z,0.88
2022-09-15T12:56:02.792Z,0.87
2022-09-15T12:58:39.634Z,0.80
2022-09-15T13:01:19.077Z,1.00
2022-09-15T13:03:49.762Z,0.88
2022-09-15T13:06:35.345Z,0.65
2022-09-15T13:09:02.452Z,0.80
2022-09-15T13:11:38.321Z,0.85
2022-09-15T13:14:14.767Z,1.33
2022-09-15T13:16:44.455Z,0.95
2022-09-15T13:19:24.417Z,1.23
2022-09-15T13:21:58.559Z,0.83
2022-09-15T13:24:50.750Z,0.60
2022-09-15T13:27:32.823Z,0.75
2022-09-15T13:30:25.993Z,0.85
2022-09-15T13:33:14.632Z,0.60
2022-09-15T13:39:05.736Z,0.60
2022-09-15T13:41:57.725Z,0.60
2022-09-15T13:44:47.825Z,1.85
2022-09-15T13:47:37.970Z,0.88
2022-09-15T13:50:14.382Z,0.67
2022-09-15T13:53:03.148Z,0.60
2022-09-15T13:55:39.380Z,0.60
2022-09-15T14:01:02.849Z,0.60
2022-09-15T14:03:45.739Z,0.60
2022-09-15T14:06:36.203Z,0.60
2022-09-15T14:09:12.748Z,0.88
2022-09-15T14:11:41.355Z,0.60
2022-09-15T14:14:31.893Z,1.00
2022-09-15T14:16:59.153Z,0.90
2022-09-15T14:19:33.702Z,0.90
2022-09-15T14:22:16.155Z,0.60
2022-09-15T14:24:43.587Z,0.80
2022-09-15T14:27:11.740Z,1.10
2022-09-15T14:29:40.633Z,0.93
2022-09-15T14:32:28.790Z,1.05
2022-09-15T14:34:59.679Z,0.70
2022-09-15T14:37:28.773Z,1.15
2022-09-15T14:39:58.404Z,0.90
2022-09-15T14:42:32.370Z,1.00
2022-09-15T14:48:02.656Z,0.73
2022-09-15T14:50:33.829Z,0.70
2022-09-15T14:53:10.512Z,0.82
2022-09-15T14:55:49.711Z,0.80
2022-09-15T14:58:37.542Z,1.00
2022-09-15T15:01:16.466Z,0.93
2022-09-15T15:03:46.318Z,0.70
2022-09-15T15:06:29.381Z,0.90
2022-09-15T15:09:08.300Z,0.90
2022-09-15T15:11:38.935Z,0.70
2022-09-15T15:14:09.143Z,0.70
2022-09-15T15:16:37.230Z,0.95
2022-09-15T15:19:04.481Z,1.02
2022-09-15T15:21:43.645Z,0.70
2022-09-15T15:24:13.802Z,1.10
2022-09-15T15:26:47.665Z,0.85
2022-09-15T15:29:48.630Z,0.90
2022-09-15T15:32:22.063Z,0.60
2022-09-15T15:34:59.797Z,0.93
2022-09-15T15:37:29.781Z,0.80
2022-09-15T15:39:59.772Z,0.80
2022-09-15T15:42:29.964Z,0.73
2022-09-15T15:45:12.939Z,0.82
2022-09-15T15:47:43.209Z,0.90
2022-09-15T15:50:16.241Z,0.73
2022-09-15T15:52:44.029Z,1.10
2022-09-15T15:55:26.750Z,0.90
2022-09-15T15:57:55.455Z,0.75
2022-09-15T16:00:23.953Z,0.70
2022-09-15T16:02:51.623Z,0.50
2022-09-15T16:05:22.141Z,0.50
2022-09-15T16:07:51.713Z,0.47
2022-09-15T16:10:21.835Z,0.60
2022-09-15T16:12:49.382Z,0.50
2022-09-15T16:15:19.217Z,0.52
2022-09-15T16:17:47.283Z,0.60
2022-09-15T16:20:25.364Z,0.50
2022-09-15T16:22:52.480Z,0.50
2022-09-15T16:25:36.626Z,0.60
2022-09-15T16:28:04.714Z,0.73
2022-09-15T16:30:32.278Z,0.57
2022-09-15T16:32:59.708Z,0.50
2022-09-15T16:35:39.916Z,0.40
2022-09-15T16:38:07.927Z,0.50
2022-09-15T16:40:37.078Z,0.50
2022-09-15T16:43:09.187Z,0.47
2022-09-15T16:45:40.600Z,0.40
2022-09-15T16:48:09.847Z,0.50
2022-09-15T16:50:39.902Z,0.40
2022-09-15T16:53:14.381Z,0.50
2022-09-15T16:55:45.988Z,0.75
2022-09-15T16:58:14.059Z,0.43
2022-09-15T17:00:42.619Z,0.50
2022-09-15T17:03:15.584Z,0.60
2022-09-15T17:05:48.676Z,0.40
2022-09-15T17:08:17.677Z,0.40
2022-09-15T17:10:45.544Z,0.40
2022-09-15T17:13:22.307Z,0.30
2022-09-15T17:15:53.928Z,0.43
2022-09-15T17:18:22.001Z,0.38
2022-09-15T17:20:50.151Z,0.43
2022-09-15T17:23:36.817Z,0.40
2022-09-15T17:26:11.620Z,0.55
2022-09-15T17:28:39.647Z,0.70
2022-09-15T17:31:14.384Z,0.40
2022-09-15T17:33:41.731Z,0.38
2022-09-15T17:36:11.713Z,0.30
2022-09-15T17:38:41.088Z,0.22
2022-09-15T17:41:22.484Z,0.37
2022-09-15T17:43:49.937Z,0.40
2022-09-15T17:46:17.130Z,0.30
2022-09-15T17:48:44.304Z,0.40
2022-09-15T17:51:17.339Z,0.40
2022-09-15T17:53:47.902Z,0.40
2022-09-15T17:56:15.164Z,0.60
2022-09-15T17:58:43.140Z,0.50
2022-09-15T18:01:14.479Z,0.40
2022-09-15T18:03:44.083Z,0.50
2022-09-15T18:06:11.383Z,0.40
2022-09-15T18:08:38.750Z,0.50
2022-09-15T18:11:06.587Z,0.60
2022-09-15T18:13:34.188Z,0.50
2022-09-15T18:16:06.327Z,0.40
2022-09-15T18:18:34.190Z,0.40
2022-09-15T18:21:01.439Z,0.60
2022-09-15T18:23:29.572Z,0.90
2022-09-15T18:25:56.829Z,0.55
2022-09-15T18:28:23.986Z,0.70
2022-09-15T18:30:51.277Z,0.43
2022-09-15T18:33:21.441Z,0.68
2022-09-15T18:35:54.591Z,0.75
2022-09-15T18:38:23.029Z,0.50
2022-09-15T18:40:56.062Z,0.70
2022-09-15T18:43:25.289Z,0.80
2022-09-15T18:45:57.500Z,0.65
2022-09-15T18:48:24.696Z,0.60
2022-09-15T18:50:53.362Z,0.70
2022-09-15T18:53:20.720Z,0.60
2022-09-15T18:55:47.786Z,1.00
2022-09-15T18:58:15.030Z,0.60
2022-09-15T19:00:42.107Z,0.50
2022-09-15T19:03:09.595Z,0.50
2022-09-15T19:05:37.506Z,0.50
2022-09-15T19:08:04.831Z,0.50
2022-09-15T19:10:32.476Z,0.68
2022-09-15T19:12:59.556Z,0.50
2022-09-15T19:15:29.316Z,0.50
2022-09-15T19:17:56.657Z,0.50
2022-09-15T19:20:23.758Z,0.40
2022-09-15T19:22:51.677Z,1.05
2022-09-15T19:25:18.822Z,0.50
2022-09-15T19:27:47.851Z,0.80
2022-09-15T19:30:15.193Z,0.50
2022-09-15T19:32:42.874Z,0.60
2022-09-15T19:35:11.345Z,0.60
2022-09-15T19:37:40.508Z,0.50
2022-09-15T19:40:09.888Z,0.60
2022-09-15T19:42:38.842Z,0.60
2022-09-15T19:45:07.151Z,0.63
2022-09-15T19:47:35.319Z,0.45
2022-09-15T19:50:03.019Z,0.73
2022-09-15T19:52:30.119Z,0.50
2022-09-15T19:54:57.223Z,0.60
2022-09-15T19:57:24.750Z,0.60
2022-09-15T19:59:51.816Z,0.90
2022-09-15T20:02:19.984Z,0.60
2022-09-15T20:04:47.684Z,0.50
2022-09-15T20:07:14.820Z,0.73
2022-09-15T20:09:42.176Z,0.50
2022-09-15T20:12:09.254Z,0.70
2022-09-15T20:14:36.495Z,0.60
2022-09-15T20:17:04.506Z,0.70
2022-09-15T20:19:31.776Z,0.90
2022-09-15T20:21:58.887Z,0.70
2022-09-15T20:24:26.015Z,0.70
2022-09-15T20:26:55.546Z,0.50
2022-09-15T20:29:23.852Z,0.65
2022-09-15T20:31:50.963Z,0.70
2022-09-15T20:34:18.765Z,0.77
2022-09-15T20:36:46.017Z,0.68
2022-09-15T20:39:14.977Z,0.70
2022-09-15T20:41:46.712Z,0.77
2022-09-15T20:44:14.486Z,0.98
2022-09-15T20:46:41.880Z,1.23
2022-09-15T20:49:11.396Z,0.60
2022-09-15T20:51:38.477Z,0.60
2022-09-15T20:54:05.835Z,0.60
2022-09-15T20:56:35.305Z,0.55
2022-09-15T20:59:03.587Z,0.63
2022-09-15T21:04:27.843Z,0.73
2022-09-15T21:06:54.880Z,0.55
2022-09-15T21:09:22.027Z,0.88
2022-09-15T21:11:53.276Z,0.60
2022-09-15T21:14:20.670Z,0.75
2022-09-15T21:16:47.790Z,1.10
2022-09-15T21:19:15.817Z,0.60
2022-09-15T21:21:42.995Z,0.70
2022-09-15T21:24:10.194Z,0.60
2022-09-15T21:26:58.681Z,0.70
2022-09-15T21:29:27.625Z,0.60
2022-09-15T21:31:55.895Z,0.90
2022-09-15T21:34:23.953Z,1.23
2022-09-15T21:36:53.518Z,0.70
2022-09-15T21:39:21.439Z,0.90
2022-09-15T21:41:48.623Z,0.70
2022-09-15T21:44:15.841Z,0.70
2022-09-15T21:46:44.889Z,0.98
2022-09-15T21:49:11.980Z,0.70
2022-09-15T21:51:39.177Z,0.80
2022-09-15T21:54:06.326Z,0.80
2022-09-15T21:56:33.531Z,0.57
2022-09-15T21:59:02.610Z,0.80
2022-09-15T22:01:31.901Z,0.80
2022-09-15T22:04:10.406Z,0.85
2022-09-15T22:06:40.492Z,0.55
2022-09-15T22:09:10.798Z,0.60
2022-09-15T22:11:37.875Z,0.82
2022-09-15T22:14:08.284Z,0.50
2022-09-15T22:16:37.665Z,0.40
2022-09-15T22:19:06.984Z,0.65
2022-09-15T22:21:38.797Z,0.80
2022-09-15T22:24:07.192Z,0.50
2022-09-15T22:26:36.836Z,0.50
2022-09-15T22:29:04.945Z,0.95
2022-09-15T22:31:32.343Z,0.60
2022-09-15T22:33:59.513Z,0.57
2022-09-15T22:36:29.964Z,0.70
2022-09-15T22:39:07.774Z,0.83
2022-09-15T22:41:37.504Z,0.50
2022-09-15T22:44:06.009Z,0.88
2022-09-15T22:46:33.522Z,0.60
2022-09-15T22:49:00.968Z,0.70
2022-09-15T22:51:28.339Z,0.77
2022-09-15T22:53:57.250Z,1.05
2022-09-15T22:56:26.280Z,0.82
2022-09-15T22:58:54.173Z,0.65
2022-09-15T23:01:30.834Z,1.17
2022-09-15T23:04:02.313Z,0.63
2022-09-15T23:06:32.313Z,0.70
2022-09-15T23:09:03.344Z,0.82
2022-09-15T23:11:33.299Z,0.75
2022-09-15T23:14:01.191Z,0.80
2022-09-15T23:16:30.627Z,0.77
2022-09-15T23:18:58.453Z,0.70
2022-09-15T23:21:25.985Z,0.88
2022-09-15T23:23:54.216Z,0.80
2022-09-15T23:26:23.394Z,0.90
2022-09-15T23:28:50.560Z,0.77
2022-09-15T23:31:18.443Z,0.98
2022-09-15T23:33:46.133Z,0.82
2022-09-15T23:36:15.463Z,1.00
2022-09-15T23:38:44.375Z,1.00
2022-09-15T23:41:12.737Z,0.80
2022-09-15T23:43:40.463Z,0.88
2022-09-15T23:46:07.984Z,0.85
2022-09-15T23:48:35.329Z,0.70
2022-09-15T23:51:02.798Z,0.80
2022-09-15T23:53:30.050Z,1.47
2022-09-15T23:55:57.190Z,1.15
2022-09-15T23:58:24.755Z,0.80
